KLM1834 EDDS-EHAM
Flight info
| Callsign | KLM1834 |
|---|---|
| Flight time | N/A |
| Altitude | 32000 |
| Route | OKIBA4B/25 OKIBA N851 RIMKI Z99 LOHRE/N0438F330 DCT MASEK/N0438F320 DCT MAPOX DCT NORKU NORKU2A |
| Aircraft | B738/M-SDE2E3FGHIRWXY/LB1 |
Departure
| Time | N/A |
|---|---|
| Airport | Stuttgart Airport (EDDS) |
Arrival
| Time | 2026-05-03 21:04 |
|---|---|
| Airport | Amsterdam Airport Schiphol (EHAM) |
| Time | Latitude | Longitude | Altitude | Speed | Heading |
|---|---|---|---|---|---|
| 2026-05-03 20:15 | 49.84911 | 9.40074 | 30425 ft | 476 kts | 13° |
| 2026-05-03 20:15 | 49.88108 | 9.41389 | 30889 ft | 474 kts | 13° |
| 2026-05-03 20:15 | 49.91299 | 9.42664 | 31378 ft | 472 kts | 13° |
| 2026-05-03 20:15 | 49.94480 | 9.43902 | 31815 ft | 471 kts | 12° |
| 2026-05-03 20:16 | 49.97667 | 9.45126 | 32202 ft | 471 kts | 12° |
| 2026-05-03 20:16 | 50.00847 | 9.46343 | 32583 ft | 471 kts | 13° |
| 2026-05-03 20:16 | 50.04030 | 9.47567 | 32986 ft | 471 kts | 13° |
| 2026-05-03 20:17 | 50.10456 | 9.49489 | 33002 ft | 475 kts | 5° |
| 2026-05-03 20:17 | 50.13057 | 9.49926 | 32988 ft | 473 kts | 4° |
| 2026-05-03 20:18 | 50.17558 | 9.50575 | 32979 ft | 467 kts | 3° |
| 2026-05-03 20:18 | 50.23569 | 9.51458 | 32991 ft | 467 kts | 4° |
| 2026-05-03 20:19 | 50.30046 | 9.52504 | 32998 ft | 468 kts | 4° |
| 2026-05-03 20:19 | 50.36533 | 9.53600 | 32983 ft | 468 kts | 4° |
| 2026-05-03 20:20 | 50.43012 | 9.54702 | 32977 ft | 469 kts | 4° |
| 2026-05-03 20:20 | 50.49477 | 9.55801 | 32997 ft | 469 kts | 4° |
| 2026-05-03 20:21 | 50.55974 | 9.56906 | 32973 ft | 470 kts | 4° |
| 2026-05-03 20:21 | 50.62493 | 9.58018 | 32977 ft | 471 kts | 4° |
| 2026-05-03 20:22 | 50.69016 | 9.58864 | 32932 ft | 467 kts | 351° |
| 2026-05-03 20:22 | 50.72095 | 9.57700 | 32984 ft | 457 kts | 333° |
| 2026-05-03 20:22 | 50.74864 | 9.55347 | 32972 ft | 449 kts | 319° |
| 2026-05-03 20:22 | 50.77133 | 9.52062 | 32971 ft | 439 kts | 306° |
| 2026-05-03 20:23 | 50.79087 | 9.48367 | 32977 ft | 438 kts | 304° |
| 2026-05-03 20:23 | 50.82233 | 9.42164 | 32980 ft | 439 kts | 303° |
| 2026-05-03 20:24 | 50.86079 | 9.34597 | 32965 ft | 442 kts | 304° |
| 2026-05-03 20:24 | 50.89976 | 9.27032 | 32962 ft | 443 kts | 304° |
| 2026-05-03 20:25 | 50.93891 | 9.19463 | 32967 ft | 444 kts | 304° |
| 2026-05-03 20:25 | 50.97816 | 9.11855 | 32970 ft | 445 kts | 304° |
| 2026-05-03 20:26 | 51.01707 | 9.04287 | 32970 ft | 445 kts | 303° |
| 2026-05-03 20:26 | 51.05613 | 8.96667 | 32970 ft | 444 kts | 303° |
| 2026-05-03 20:27 | 51.09509 | 8.89042 | 32966 ft | 443 kts | 303° |
| 2026-05-03 20:27 | 51.13364 | 8.81491 | 32962 ft | 443 kts | 305° |
| 2026-05-03 20:28 | 51.17583 | 8.74290 | 32961 ft | 445 kts | 309° |
| 2026-05-03 20:28 | 51.21945 | 8.67250 | 32961 ft | 445 kts | 309° |
| 2026-05-03 20:29 | 51.26275 | 8.60213 | 33004 ft | 444 kts | 308° |
| 2026-05-03 20:29 | 51.30574 | 8.53135 | 32974 ft | 444 kts | 308° |
| 2026-05-03 20:30 | 51.34834 | 8.46074 | 32960 ft | 444 kts | 308° |
| 2026-05-03 20:30 | 51.39112 | 8.38956 | 32963 ft | 443 kts | 308° |
| 2026-05-03 20:31 | 51.43384 | 8.31829 | 32957 ft | 443 kts | 308° |
| 2026-05-03 20:31 | 51.47653 | 8.24686 | 32965 ft | 444 kts | 308° |
| 2026-05-03 20:32 | 51.51923 | 8.17521 | 32977 ft | 445 kts | 308° |
| 2026-05-03 20:32 | 51.56181 | 8.10358 | 32962 ft | 446 kts | 307° |
| 2026-05-03 20:33 | 51.60452 | 8.03151 | 32967 ft | 446 kts | 307° |
| 2026-05-03 20:33 | 51.64695 | 7.95972 | 32957 ft | 446 kts | 307° |
| 2026-05-03 20:34 | 51.68970 | 7.88718 | 32958 ft | 447 kts | 307° |
| 2026-05-03 20:34 | 51.73253 | 7.81427 | 32960 ft | 447 kts | 307° |
| 2026-05-03 20:35 | 51.77527 | 7.74131 | 32964 ft | 446 kts | 307° |
| 2026-05-03 20:35 | 51.81760 | 7.66883 | 32960 ft | 446 kts | 307° |
| 2026-05-03 20:36 | 51.86009 | 7.59586 | 32951 ft | 445 kts | 307° |
| 2026-05-03 20:36 | 51.90257 | 7.52271 | 32948 ft | 444 kts | 307° |
| 2026-05-03 20:37 | 51.94484 | 7.44970 | 32944 ft | 443 kts | 307° |
| 2026-05-03 20:37 | 51.98669 | 7.37718 | 32935 ft | 443 kts | 307° |
| 2026-05-03 20:37 | 52.00782 | 7.34047 | 32587 ft | 446 kts | 307° |
| 2026-05-03 20:38 | 52.02896 | 7.30372 | 32175 ft | 440 kts | 307° |
| 2026-05-03 20:38 | 52.04952 | 7.26797 | 31694 ft | 436 kts | 307° |
| 2026-05-03 20:38 | 52.07015 | 7.23202 | 31242 ft | 431 kts | 307° |
| 2026-05-03 20:38 | 52.09028 | 7.19689 | 30807 ft | 427 kts | 306° |
| 2026-05-03 20:39 | 52.11037 | 7.16174 | 30358 ft | 423 kts | 306° |
| 2026-05-03 20:39 | 52.13031 | 7.12680 | 29918 ft | 419 kts | 306° |
| 2026-05-03 20:39 | 52.15007 | 7.09211 | 29402 ft | 415 kts | 306° |
| 2026-05-03 20:39 | 52.16962 | 7.05777 | 28955 ft | 410 kts | 306° |
| 2026-05-03 20:40 | 52.18889 | 7.02388 | 28500 ft | 405 kts | 306° |
| 2026-05-03 20:40 | 52.20795 | 6.99032 | 28049 ft | 401 kts | 306° |
| 2026-05-03 20:40 | 52.22650 | 6.95661 | 27615 ft | 395 kts | 304° |
| 2026-05-03 20:40 | 52.24356 | 6.92281 | 27239 ft | 389 kts | 302° |
| 2026-05-03 20:41 | 52.26042 | 6.88837 | 26862 ft | 387 kts | 302° |
| 2026-05-03 20:41 | 52.27719 | 6.85402 | 26473 ft | 388 kts | 303° |
| 2026-05-03 20:41 | 52.29418 | 6.81951 | 26073 ft | 387 kts | 303° |
| 2026-05-03 20:41 | 52.31107 | 6.78551 | 25664 ft | 383 kts | 303° |
| 2026-05-03 20:42 | 52.32779 | 6.75190 | 25285 ft | 379 kts | 303° |
| 2026-05-03 20:42 | 52.34438 | 6.71852 | 24923 ft | 378 kts | 303° |
| 2026-05-03 20:42 | 52.36096 | 6.68512 | 24542 ft | 379 kts | 303° |
| 2026-05-03 20:42 | 52.37757 | 6.65161 | 24165 ft | 379 kts | 303° |
| 2026-05-03 20:43 | 52.39412 | 6.61822 | 23775 ft | 376 kts | 303° |
| 2026-05-03 20:43 | 52.41056 | 6.58499 | 23376 ft | 374 kts | 304° |
| 2026-05-03 20:43 | 52.42678 | 6.55218 | 22942 ft | 372 kts | 304° |
| 2026-05-03 20:43 | 52.44297 | 6.51937 | 22541 ft | 369 kts | 304° |
| 2026-05-03 20:44 | 52.45880 | 6.48652 | 22157 ft | 363 kts | 298° |
| 2026-05-03 20:44 | 52.46902 | 6.44974 | 21830 ft | 349 kts | 280° |
| 2026-05-03 20:44 | 52.47250 | 6.41079 | 21476 ft | 342 kts | 272° |
| 2026-05-03 20:44 | 52.47434 | 6.37205 | 21122 ft | 340 kts | 271° |
| 2026-05-03 20:45 | 52.47595 | 6.33350 | 20775 ft | 338 kts | 271° |
| 2026-05-03 20:45 | 52.47759 | 6.29506 | 20430 ft | 336 kts | 271° |
| 2026-05-03 20:45 | 52.47931 | 6.25692 | 20095 ft | 335 kts | 271° |
| 2026-05-03 20:45 | 52.48049 | 6.23169 | 19970 ft | 335 kts | 271° |
| 2026-05-03 20:46 | 52.48289 | 6.18153 | 19920 ft | 327 kts | 271° |
| 2026-05-03 20:46 | 52.48410 | 6.15675 | 19914 ft | 318 kts | 271° |
| 2026-05-03 20:46 | 52.48637 | 6.11019 | 19857 ft | 301 kts | 271° |
| 2026-05-03 20:46 | 52.48748 | 6.08720 | 19605 ft | 300 kts | 271° |
| 2026-05-03 20:47 | 52.48906 | 6.05349 | 18695 ft | 318 kts | 271° |
| 2026-05-03 20:47 | 52.49077 | 6.01688 | 17983 ft | 327 kts | 272° |
| 2026-05-03 20:47 | 52.49252 | 5.97992 | 17617 ft | 324 kts | 272° |
| 2026-05-03 20:47 | 52.49423 | 5.94362 | 17261 ft | 322 kts | 272° |
| 2026-05-03 20:48 | 52.49595 | 5.90692 | 16917 ft | 322 kts | 272° |
| 2026-05-03 20:48 | 52.49765 | 5.87041 | 16581 ft | 320 kts | 272° |
| 2026-05-03 20:48 | 52.49933 | 5.83400 | 16259 ft | 319 kts | 272° |
| 2026-05-03 20:48 | 52.50099 | 5.79772 | 15938 ft | 318 kts | 272° |
| 2026-05-03 20:49 | 52.50265 | 5.76132 | 15618 ft | 320 kts | 272° |
| 2026-05-03 20:49 | 52.50429 | 5.72487 | 15291 ft | 319 kts | 272° |
| 2026-05-03 20:49 | 52.50594 | 5.68854 | 14971 ft | 318 kts | 272° |
| 2026-05-03 20:49 | 52.50755 | 5.65238 | 14652 ft | 317 kts | 272° |
| 2026-05-03 20:50 | 52.50915 | 5.61631 | 14356 ft | 315 kts | 272° |
| 2026-05-03 20:50 | 52.51076 | 5.58071 | 14038 ft | 311 kts | 273° |
| 2026-05-03 20:50 | 52.51589 | 5.54654 | 13828 ft | 307 kts | 288° |
| 2026-05-03 20:50 | 52.52378 | 5.51493 | 13634 ft | 299 kts | 289° |
| 2026-05-03 20:51 | 52.53179 | 5.48379 | 13448 ft | 294 kts | 289° |
| 2026-05-03 20:51 | 52.53970 | 5.45291 | 13270 ft | 292 kts | 289° |
| 2026-05-03 20:51 | 52.54756 | 5.42195 | 12909 ft | 296 kts | 289° |
| 2026-05-03 20:51 | 52.55547 | 5.39051 | 12482 ft | 297 kts | 289° |
| 2026-05-03 20:52 | 52.56332 | 5.35906 | 12049 ft | 298 kts | 289° |
| 2026-05-03 20:52 | 52.57118 | 5.32750 | 11618 ft | 298 kts | 289° |
| 2026-05-03 20:52 | 52.57899 | 5.29597 | 11188 ft | 295 kts | 289° |
| 2026-05-03 20:52 | 52.58664 | 5.26505 | 10755 ft | 288 kts | 289° |
| 2026-05-03 20:53 | 52.59409 | 5.23489 | 10335 ft | 282 kts | 289° |
| 2026-05-03 20:53 | 52.60137 | 5.20533 | 9919 ft | 276 kts | 289° |
| 2026-05-03 20:53 | 52.60840 | 5.17669 | 9479 ft | 271 kts | 289° |
| 2026-05-03 20:53 | 52.61541 | 5.14813 | 9029 ft | 267 kts | 289° |
| 2026-05-03 20:54 | 52.62229 | 5.12004 | 8584 ft | 263 kts | 289° |
| 2026-05-03 20:54 | 52.63575 | 5.06498 | 7717 ft | 256 kts | 289° |
| 2026-05-03 20:54 | 52.64218 | 5.03859 | 7344 ft | 252 kts | 289° |
| 2026-05-03 20:55 | 52.64851 | 5.01265 | 6973 ft | 247 kts | 289° |
| 2026-05-03 20:55 | 52.65487 | 4.98655 | 6607 ft | 244 kts | 289° |
| 2026-05-03 20:55 | 52.66112 | 4.96084 | 6239 ft | 240 kts | 289° |
| 2026-05-03 20:55 | 52.66727 | 4.93550 | 5858 ft | 237 kts | 289° |
| 2026-05-03 20:56 | 52.67335 | 4.91042 | 5467 ft | 234 kts | 289° |
| 2026-05-03 20:56 | 52.67897 | 4.88581 | 5089 ft | 230 kts | 281° |
| 2026-05-03 20:56 | 52.67846 | 4.86015 | 4700 ft | 225 kts | 249° |
| 2026-05-03 20:56 | 52.67082 | 4.83768 | 4416 ft | 222 kts | 236° |
| 2026-05-03 20:57 | 52.66001 | 4.81989 | 4110 ft | 218 kts | 219° |
| 2026-05-03 20:57 | 52.64797 | 4.80503 | 3799 ft | 214 kts | 218° |
| 2026-05-03 20:57 | 52.63636 | 4.79102 | 3501 ft | 211 kts | 217° |
| 2026-05-03 20:57 | 52.62457 | 4.77686 | 3193 ft | 208 kts | 217° |
| 2026-05-03 20:58 | 52.61295 | 4.76293 | 2890 ft | 205 kts | 217° |
| 2026-05-03 20:58 | 52.60157 | 4.74931 | 2606 ft | 200 kts | 217° |
| 2026-05-03 20:58 | 52.59034 | 4.73649 | 2414 ft | 191 kts | 209° |
| 2026-05-03 20:58 | 52.57790 | 4.73277 | 2392 ft | 181 kts | 182° |
| 2026-05-03 20:59 | 52.56541 | 4.73161 | 2388 ft | 184 kts | 188° |
| 2026-05-03 20:59 | 52.55285 | 4.72974 | 2380 ft | 183 kts | 187° |
| 2026-05-03 20:59 | 52.54033 | 4.72831 | 2375 ft | 177 kts | 187° |
| 2026-05-03 20:59 | 52.52842 | 4.72714 | 2373 ft | 165 kts | 187° |
| 2026-05-03 21:00 | 52.51729 | 4.72610 | 2380 ft | 159 kts | 186° |
| 2026-05-03 21:00 | 52.50997 | 4.72542 | 2393 ft | 159 kts | 187° |
| 2026-05-03 21:00 | 52.49517 | 4.72406 | 2393 ft | 160 kts | 187° |
| 2026-05-03 21:00 | 52.48411 | 4.72305 | 2382 ft | 158 kts | 187° |
| 2026-05-03 21:01 | 52.47313 | 4.72204 | 2242 ft | 155 kts | 187° |
| 2026-05-03 21:01 | 52.46260 | 4.72109 | 2033 ft | 148 kts | 187° |
| 2026-05-03 21:01 | 52.45268 | 4.72020 | 1863 ft | 140 kts | 187° |
| 2026-05-03 21:01 | 52.44280 | 4.71927 | 1677 ft | 144 kts | 187° |
| 2026-05-03 21:02 | 52.43265 | 4.71833 | 1460 ft | 147 kts | 187° |
| 2026-05-03 21:02 | 52.42240 | 4.71739 | 1253 ft | 147 kts | 186° |
| 2026-05-03 21:02 | 52.41226 | 4.71648 | 1053 ft | 143 kts | 186° |
| 2026-05-03 21:02 | 52.40243 | 4.71558 | 853 ft | 140 kts | 186° |
| 2026-05-03 21:03 | 52.39275 | 4.71468 | 684 ft | 140 kts | 186° |
| 2026-05-03 21:03 | 52.38313 | 4.71381 | 492 ft | 141 kts | 186° |
| 2026-05-03 21:03 | 52.37326 | 4.71290 | 296 ft | 142 kts | 185° |
| 2026-05-03 21:03 | 52.36350 | 4.71214 | 110 ft | 141 kts | 186° |
| 2026-05-03 21:04 | 52.35389 | 4.71109 | -6 ft | 131 kts | 185° |
| 2026-05-03 21:04 | 52.34593 | 4.71046 | -2 ft | 97 kts | 183° |
| 2026-05-03 21:04 | 52.34040 | 4.70987 | -6 ft | 63 kts | 183° |
| 2026-05-03 21:04 | 52.33640 | 4.70942 | 1 ft | 43 kts | 185° |
| 2026-05-03 21:05 | 52.33387 | 4.70989 | -4 ft | 21 kts | 150° |
| 2026-05-03 21:05 | 52.33364 | 4.71013 | -4 ft | 6 kts | 147° |
| 2026-05-03 21:05 | 52.33322 | 4.71074 | -5 ft | 11 kts | 136° |
| 2026-05-03 21:05 | 52.33262 | 4.71188 | -5 ft | 16 kts | 132° |
| 2026-05-03 21:06 | 52.33176 | 4.71341 | -2 ft | 20 kts | 131° |
| 2026-05-03 21:06 | 52.33074 | 4.71527 | -1 ft | 23 kts | 132° |
| 2026-05-03 21:06 | 52.32969 | 4.71721 | -3 ft | 23 kts | 132° |
| 2026-05-03 21:06 | 52.32866 | 4.71909 | -4 ft | 22 kts | 127° |
| 2026-05-03 21:07 | 52.32845 | 4.72146 | -4 ft | 21 kts | 87° |
| 2026-05-03 21:07 | 52.32789 | 4.72346 | -1 ft | 21 kts | 142° |
| 2026-05-03 21:07 | 52.32684 | 4.72501 | 0 ft | 20 kts | 132° |
| 2026-05-03 21:07 | 52.32588 | 4.72669 | -4 ft | 21 kts | 137° |
| 2026-05-03 21:08 | 52.32477 | 4.72812 | -4 ft | 20 kts | 143° |
| 2026-05-03 21:08 | 52.32372 | 4.72955 | -4 ft | 19 kts | 140° |
| 2026-05-03 21:08 | 52.32273 | 4.73096 | -4 ft | 19 kts | 139° |
| 2026-05-03 21:08 | 52.32176 | 4.73232 | -1 ft | 18 kts | 140° |
| 2026-05-03 21:09 | 52.32086 | 4.73369 | 1 ft | 17 kts | 124° |
| 2026-05-03 21:09 | 52.32056 | 4.73559 | 0 ft | 18 kts | 94° |
| 2026-05-03 21:09 | 52.32046 | 4.73771 | -1 ft | 20 kts | 95° |
| 2026-05-03 21:09 | 52.32037 | 4.74010 | -6 ft | 23 kts | 92° |
| 2026-05-03 21:10 | 52.31959 | 4.74192 | -6 ft | 23 kts | 181° |
| 2026-05-03 21:10 | 52.31804 | 4.74172 | -5 ft | 22 kts | 184° |
| 2026-05-03 21:10 | 52.31652 | 4.74161 | -1 ft | 21 kts | 182° |
| 2026-05-03 21:10 | 52.31505 | 4.74148 | -3 ft | 21 kts | 185° |
| 2026-05-03 21:11 | 52.31421 | 4.74135 | -3 ft | 0 kts | 182° |
| 2026-05-03 21:11 | 52.31410 | 4.74135 | -3 ft | 5 kts | 180° |
| 2026-05-03 21:11 | 52.31329 | 4.74131 | -3 ft | 18 kts | 183° |
| 2026-05-03 21:11 | 52.31166 | 4.74114 | -3 ft | 29 kts | 182° |
| 2026-05-03 21:12 | 52.30962 | 4.74097 | -4 ft | 29 kts | 184° |
| 2026-05-03 21:12 | 52.30771 | 4.74077 | -4 ft | 27 kts | 182° |
| 2026-05-03 21:12 | 52.30590 | 4.74062 | -3 ft | 25 kts | 183° |
| 2026-05-03 21:12 | 52.30437 | 4.74106 | -3 ft | 23 kts | 141° |
| 2026-05-03 21:13 | 52.30330 | 4.74293 | -3 ft | 22 kts | 131° |
| 2026-05-03 21:13 | 52.30230 | 4.74471 | -3 ft | 22 kts | 131° |
| 2026-05-03 21:13 | 52.30130 | 4.74654 | -3 ft | 21 kts | 132° |
| 2026-05-03 21:13 | 52.30032 | 4.74830 | -3 ft | 21 kts | 132° |
| 2026-05-03 21:14 | 52.29940 | 4.75007 | -3 ft | 21 kts | 131° |
| 2026-05-03 21:14 | 52.29847 | 4.75187 | -3 ft | 20 kts | 116° |
| 2026-05-03 21:14 | 52.29870 | 4.75403 | -3 ft | 20 kts | 58° |
| 2026-05-03 21:14 | 52.29938 | 4.75592 | -3 ft | 19 kts | 60° |
| 2026-05-03 21:15 | 52.30003 | 4.75773 | -3 ft | 19 kts | 54° |
| 2026-05-03 21:15 | 52.30076 | 4.75948 | -3 ft | 20 kts | 57° |
| 2026-05-03 21:15 | 52.30150 | 4.76144 | -3 ft | 20 kts | 59° |
| 2026-05-03 21:15 | 52.30237 | 4.76222 | -3 ft | 16 kts | 336° |
| 2026-05-03 21:16 | 52.30308 | 4.76155 | -3 ft | 0 kts | 326° |
| 2026-05-03 21:16 | 52.30313 | 4.76150 | -3 ft | 3 kts | 329° |
| 2026-05-03 21:16 | 52.30338 | 4.76126 | -3 ft | 5 kts | 329° |
| 2026-05-03 21:16 | 52.30363 | 4.76146 | -3 ft | 3 kts | 56° |
| 2026-05-03 21:17 | 52.30370 | 4.76164 | -3 ft | 0 kts | 56° |